ADDS METAR Data INFO
IDs: Format: Raw Decoded Include TAF

Data at: 1039 UTC 19 Oct 2017

KSOP 190956Z AUTO 00000KT 10SM CLR 03/03 A3029 RMK AO2 SLP279 T00330028
KSOP 190856Z AUTO 00000KT 10SM CLR 04/03 A3029 RMK AO2 SLP277 T00390033 57006
KSOP 190756Z AUTO 00000KT 10SM CLR 04/03 A3030 RMK AO2 SLP280 T00390028
KSOP 190656Z AUTO 00000KT 10SM CLR 04/03 A3030 RMK AO2 SLP281 T00440033
KSOP 190556Z AUTO 00000KT 10SM CLR 04/04 A3031 RMK AO2 SLP284 T00440039 10106 20044 56005
KSOP 190456Z AUTO 00000KT 10SM CLR 06/04 A3031 RMK AO2 SLP284 T00560044
KSOP 190356Z AUTO 00000KT 10SM CLR 06/04 A3032 RMK AO2 SLP289 T00560044 402060006
KSOP 190256Z AUTO 00000KT 10SM CLR 06/05 A3033 RMK AO2 SLP290 T00610050 50001
KSOP 190156Z AUTO 00000KT 10SM CLR 07/05 A3033 RMK AO2 SLP293 T00720050
KSOP 190056Z AUTO 00000KT 10SM CLR 08/05 A3033 RMK AO2 SLP293 T00830050
KSOP 182356Z AUTO 00000KT 10SM CLR 11/04 A3032 RMK AO2 SLP290 T01060044 10206 20106 53006
KSOP 182256Z AUTO 00000KT 10SM CLR 14/04 A3032 RMK AO2 SLP286 T01440039
KSOP 182156Z AUTO 07005KT 8SM CLR 19/02 A3031 RMK AO2 SLP284 T01890022
KSOP 182056Z AUTO 08007KT 10SM CLR 20/00 A3031 RMK AO2 SLP283 T02000000 56015
KSOP 181956Z AUTO 04004KT 8SM CLR 21/00 A3032 RMK AO2 SLP286 T02060000 TSNO
KSOP 181856Z AUTO VRB06KT 10SM CLR 20/01 A3033 RMK AO2 SLP292 T02000006
KSOP 181756Z AUTO 04008KT 10SM CLR 19/02 A3035 RMK AO2 SLP297 T01940017 10194 20022 58017
KSOP 181656Z AUTO 03007KT 10SM CLR 18/00 A3038 RMK AO2 SLP307 T01830000
KSOP 181556Z AUTO 06009KT 10SM CLR 17/02 A3040 RMK AO2 SLP315 T01670017
KSOP 181456Z AUTO 05009KT 10SM CLR 15/04 A3040 RMK AO2 SLP315 T01500044 51010
KSOP 181356Z AUTO 03005KT 10SM CLR 12/07 A3040 RMK AO2 SLP316 T01170067
KSOP 181256Z AUTO 35003KT 10SM CLR 07/05 A3039 RMK AO2 SLP311 T00720050
KSOP 181056Z AUTO 00000KT 10SM CLR 02/01 A3036 RMK AO2 SLP301 T00170011 FZRANO
KSOP 180956Z AUTO 00000KT 10SM CLR 02/02 A3034 RMK AO2 SLP297 T00220017 FZRANO
KSOP 180856Z AUTO 28003KT 10SM CLR 02/01 A3034 RMK AO2 SLP295 T00170011 53003 FZRANO
KSOP 180756Z AUTO 00000KT 10SM CLR 03/02 A3033 RMK AO2 SLP291 T00280017
KSOP 180656Z AUTO 00000KT 10SM CLR 03/02 A3033 RMK AO2 SLP291 T00280022 TSNO
KSOP 180556Z AUTO 00000KT 10SM CLR 04/03 A3033 RMK AO2 SLP291 T00390033 10094 20039 55004
KSOP 180456Z AUTO 00000KT 10SM CLR 04/03 A3032 RMK AO2 SLP289 T00440033
KSOP 180356Z AUTO 00000KT 10SM CLR 05/04 A3033 RMK AO2 SLP292 T00500039 401830050
KSOP 180256Z AUTO 00000KT 10SM CLR 06/04 A3034 RMK AO2 SLP296 T00560044 51013
KSOP 180156Z AUTO 00000KT 10SM CLR 07/05 A3034 RMK AO2 SLP295 T00670050
KSOP 180056Z AUTO 00000KT 10SM CLR 08/05 A3032 RMK AO2 SLP287 T00780050
KSOP 172356Z AUTO 06003KT 10SM CLR 10/04 A3030 RMK AO2 SLP283 T01000044 10183 20094 53007
KSOP 172256Z AUTO 05003KT 10SM CLR 12/05 A3028 RMK AO2 SLP276 T01220050